Terminal Aerodrome Forecast
Issued by NWS Binghamton, NY

Home | Current Version | Previous Version | Text Only | Print | Product List | Glossary On
Versions: 1 2 3 4 5 6 7 8 9 10 11 12 13 14 15 16 17 18 19 20 21 22
000
FTUS41 KBGM 301917 AAA
TAFSYR
TAF AMD
KSYR 301917Z 3019/3118 21016G20KT P6SM SCT045 BKN150
      TEMPO 3019/3023 4SM TSRA BR BKN040CB
     FM310100 26009KT P6SM -RA OVC050
     FM310500 34010KT 4SM -SHRA BR OVC015
      TEMPO 3108/3112 3SM BR OVC009
     FM311500 36011KT 6SM -RA BR OVC015=

USA.gov is the U.S. government's official web portal to all federal, state and local government web resources and services.